Pittsburgh, Pennsylvania
Traffic Map
Current Weather Conditions
Pittsburgh, Pennsylvania
Broken Clouds
Broken Clouds
22°
Feels Like: 22°
Wind Chill: 22° Ceiling: 4900
Heat Index: 22° Visibility: 7mi
Dew Point: 19° Wind: 7mph
Humidity: 84% Direction: 200° (SSW)
Pressure: 30in Gusts: 0mph
Raw Report DataKAGC 230853Z 20006KT 7SM BKN049 22/19 A3000 RMK AO2 SLP151 T02220194 55015
Traffic Incident Summary
Active as of:
Severity:
Category:
InformationThere was an issue retrieving the traffic information for this location. Please try a different location or try again shortly.
Advertisements
Track Severe Weather on mobile